CheckWX is a tool to help pilots better visualize weather data.  It is not intended as a substitute for an official pre-flight weather briefing.

07:19:55 UTC

EGAC METAR
George Best Belfast City Airport
Belfast, United Kingdom
Current

30 mins ago

EGAC 210650Z AUTO VRB03KT 9999 BKN014/// 10/08 Q1020
Observed
May-21 @ 06:50 UTC
Wind
  • Variable at 3 KTS
Visibility
10,000+ meters
Flight Rules
MVFR
Cloud Levels
  • Broken at 1,400' AGL
Temperature
10°C / 50°F
Dewpoint
C / 46°F
Humidity
88%
Altimeter
30.12" Hg
Pressure
1019.92 hPa
Previous

60 mins ago

EGAC 210620Z AUTO 17004KT 9999 FEW015/// 09/07 Q1019
Observed
May-21 @ 06:20 UTC
Wind
  • 170° at 4 KTS
Visibility
10,000+ meters
Flight Rules
VFR
Cloud Levels
  • Few at 1,500' AGL
Temperature
C / 48°F
Dewpoint
C / 45°F
Humidity
87%
Altimeter
30.09" Hg
Pressure
1018.92 hPa
Previous

1 hour ago

EGAC 210550Z AUTO 20006KT 9999 NCD 07/06 Q1019
Observed
May-21 @ 05:50 UTC
Wind
  • 200° at 6 KTS
Visibility
10,000+ meters
Flight Rules
VFR
Cloud Levels
  • Clear skies
Temperature
C / 45°F
Dewpoint
C / 43°F
Humidity
93%
Altimeter
30.09" Hg
Pressure
1018.92 hPa